createdAt,value
2023-03-13T00:02:27.716Z,44.90
2023-03-13T00:04:57.909Z,40.33
2023-03-13T00:07:27.843Z,42.95
2023-03-13T00:09:57.692Z,44.22
2023-03-13T00:12:27.952Z,42.72
2023-03-13T00:14:57.966Z,41.08
2023-03-13T00:17:27.827Z,40.67
2023-03-13T00:19:58.115Z,41.65
2023-03-13T00:22:28.113Z,41.60
2023-03-13T00:24:57.947Z,38.97
2023-03-13T00:27:27.811Z,39.78
2023-03-13T00:29:57.728Z,39.85
2023-03-13T00:32:27.831Z,40.70
2023-03-13T00:34:59.285Z,43.30
2023-03-13T00:37:29.587Z,42.28
2023-03-13T00:39:59.878Z,42.97
2023-03-13T00:42:31.233Z,45.15
2023-03-13T00:45:01.481Z,47.53
2023-03-13T00:47:31.371Z,42.40
2023-03-13T00:50:01.494Z,41.58
2023-03-13T00:52:31.545Z,48.13
2023-03-13T00:55:19.831Z,44.75
2023-03-13T00:57:50.240Z,50.13
2023-03-13T01:00:20.543Z,47.20
2023-03-13T01:02:51.073Z,49.13
2023-03-13T01:05:21.104Z,44.67
2023-03-13T01:07:51.098Z,44.47
2023-03-13T01:10:21.025Z,46.85
2023-03-13T01:15:54.678Z,45.45
2023-03-13T01:18:24.811Z,53.40
2023-03-13T01:20:55.734Z,46.03
2023-03-13T01:23:26.192Z,47.30
2023-03-13T01:25:58.502Z,50.25
2023-03-13T01:28:29.826Z,44.47
2023-03-13T01:33:32.838Z,43.30
2023-03-13T01:36:06.840Z,47.83
2023-03-13T01:38:45.986Z,49.95
2023-03-13T01:41:16.142Z,48.55
2023-03-13T01:43:47.985Z,48.30
2023-03-13T01:46:30.914Z,47.55
2023-03-13T01:49:17.671Z,45.70
2023-03-13T01:52:09.490Z,45.33
2023-03-13T01:54:54.701Z,44.45
2023-03-13T01:57:33.184Z,48.47
2023-03-13T02:00:14.463Z,48.25
2023-03-13T02:02:51.714Z,42.50
2023-03-13T02:05:42.805Z,47.45
2023-03-13T02:09:07.301Z,48.33
2023-03-13T02:14:47.237Z,47.60
2023-03-13T02:17:17.889Z,42.47
2023-03-13T02:19:56.252Z,51.20
2023-03-13T02:22:35.480Z,41.05
2023-03-13T02:25:26.840Z,47.92
2023-03-13T02:28:16.107Z,46.45
2023-03-13T02:33:50.354Z,48.28
2023-03-13T02:36:23.393Z,45.22
2023-03-13T02:41:35.850Z,39.25
2023-03-13T02:44:08.160Z,40.92
2023-03-13T02:46:54.942Z,41.28
2023-03-13T02:49:31.304Z,44.65
2023-03-13T02:52:15.552Z,40.35
2023-03-13T02:55:09.423Z,42.38
2023-03-13T02:57:57.800Z,46.70
2023-03-13T03:00:46.138Z,44.53
2023-03-13T03:03:16.411Z,43.28
2023-03-13T03:05:46.564Z,42.65
2023-03-13T03:08:19.350Z,42.33
2023-03-13T03:10:49.449Z,43.00
2023-03-13T03:16:13.099Z,42.60
2023-03-13T03:18:43.560Z,43.15
2023-03-13T03:21:31.703Z,39.80
2023-03-13T03:26:47.164Z,40.42
2023-03-13T03:32:35.740Z,39.33
2023-03-13T03:35:24.100Z,40.42
2023-03-13T03:38:13.880Z,37.85
2023-03-13T03:43:49.614Z,39.78
2023-03-13T03:46:38.545Z,39.10
2023-03-13T03:49:08.696Z,38.13
2023-03-13T03:51:38.780Z,40.78
2023-03-13T03:54:09.785Z,42.97
2023-03-13T03:56:59.312Z,38.85
2023-03-13T03:59:29.958Z,39.05
2023-03-13T04:04:50.514Z,40.90
2023-03-13T04:07:24.396Z,37.63
2023-03-13T04:09:54.502Z,37.47
2023-03-13T04:12:30.847Z,39.35
2023-03-13T04:15:01.187Z,38.38
2023-03-13T04:17:49.372Z,40.97
2023-03-13T04:20:22.927Z,38.78
2023-03-13T04:22:53.114Z,38.17
2023-03-13T04:25:23.363Z,38.55
2023-03-13T04:27:55.750Z,40.05
2023-03-13T04:30:43.906Z,39.25
2023-03-13T04:33:49.844Z,39.72
2023-03-13T04:36:32.090Z,39.67
2023-03-13T04:39:31.507Z,39.70
2023-03-13T04:42:22.472Z,40.38
2023-03-13T04:45:15.041Z,38.40
2023-03-13T04:47:51.369Z,38.38
2023-03-13T04:50:47.709Z,37.25
2023-03-13T04:53:23.500Z,41.03
2023-03-13T04:56:09.597Z,42.35
2023-03-13T04:58:57.586Z,37.63
2023-03-13T05:01:46.685Z,43.42
2023-03-13T05:04:27.763Z,41.35
2023-03-13T05:09:59.606Z,36.45
2023-03-13T05:12:35.488Z,38.25
2023-03-13T05:15:24.516Z,35.15
2023-03-13T05:18:12.905Z,38.08
2023-03-13T05:20:49.168Z,40.63
2023-03-13T05:23:30.406Z,42.22
2023-03-13T05:32:29.956Z,37.15
2023-03-13T05:35:18.111Z,41.58
2023-03-13T05:41:12.400Z,42.83
2023-03-13T05:44:01.243Z,46.08
2023-03-13T05:46:49.743Z,41.45
2023-03-13T05:49:36.760Z,42.03
2023-03-13T05:52:25.330Z,40.67
2023-03-13T05:55:08.196Z,43.83
2023-03-13T06:06:51.158Z,40.67
2023-03-13T06:09:39.301Z,41.40
2023-03-13T06:12:11.354Z,41.43
2023-03-13T06:14:59.586Z,41.15
2023-03-13T06:17:47.989Z,43.17
2023-03-13T06:20:18.615Z,43.50
2023-03-13T06:22:49.247Z,44.87
2023-03-13T06:25:19.477Z,46.00
2023-03-13T06:27:49.509Z,44.38
2023-03-13T06:33:05.494Z,41.90
2023-03-13T06:35:56.947Z,48.10
2023-03-13T06:38:45.368Z,47.20
2023-03-13T06:41:15.648Z,45.72
2023-03-13T06:43:45.791Z,42.92
2023-03-13T06:46:21.658Z,41.13
2023-03-13T06:49:09.912Z,41.80
2023-03-13T06:51:39.950Z,46.03
2023-03-13T06:54:10.079Z,43.28
2023-03-13T06:56:58.629Z,47.65
2023-03-13T06:59:47.911Z,46.60
2023-03-13T07:02:36.177Z,43.08
2023-03-13T07:05:08.006Z,44.17
2023-03-13T07:07:56.182Z,46.65
2023-03-13T07:10:26.342Z,45.70
2023-03-13T07:12:56.266Z,43.28
2023-03-13T07:15:26.263Z,45.10
2023-03-13T07:17:58.767Z,45.50
2023-03-13T07:20:28.900Z,41.17
2023-03-13T07:22:59.123Z,44.95
2023-03-13T07:25:29.128Z,42.00
2023-03-13T07:27:59.029Z,40.55
2023-03-13T07:30:30.011Z,45.78
2023-03-13T07:35:55.858Z,42.83
2023-03-13T07:38:25.916Z,42.78
2023-03-13T07:40:58.370Z,44.15
2023-03-13T07:43:28.859Z,48.22
2023-03-13T07:46:07.869Z,46.03
2023-03-13T07:48:40.576Z,45.80
2023-03-13T07:54:03.018Z,43.75
2023-03-13T07:56:33.441Z,45.63
2023-03-13T07:59:03.756Z,44.83
2023-03-13T08:01:34.139Z,45.72
2023-03-13T08:04:04.486Z,45.63
2023-03-13T08:06:53.843Z,42.78
2023-03-13T08:12:12.829Z,42.35
2023-03-13T08:14:43.011Z,43.80
2023-03-13T08:17:13.109Z,45.03
2023-03-13T08:20:01.561Z,45.20
2023-03-13T08:22:31.701Z,44.63
2023-03-13T08:25:01.600Z,44.83
2023-03-13T08:27:32.738Z,44.63
2023-03-13T08:32:48.391Z,46.85
2023-03-13T08:35:18.633Z,45.95
2023-03-13T08:37:50.149Z,47.70
2023-03-13T08:40:20.694Z,43.33
2023-03-13T08:42:50.714Z,42.83
2023-03-13T08:45:20.597Z,42.42
2023-03-13T08:47:55.864Z,43.03
2023-03-13T08:50:26.022Z,44.20
2023-03-13T08:52:56.684Z,48.17
2023-03-13T08:55:26.800Z,45.73
2023-03-13T08:57:56.722Z,46.35
2023-03-13T09:00:26.789Z,45.45
2023-03-13T09:02:56.694Z,46.97
2023-03-13T09:05:26.847Z,46.85
2023-03-13T09:07:57.244Z,47.08
2023-03-13T09:10:27.345Z,48.93
2023-03-13T09:12:58.186Z,49.13
2023-03-13T09:15:28.493Z,47.85
2023-03-13T09:17:59.045Z,49.53
2023-03-13T09:20:29.092Z,50.10
2023-03-13T09:22:58.897Z,47.20
2023-03-13T09:25:28.944Z,48.65
2023-03-13T09:27:58.762Z,51.45
2023-03-13T09:30:28.967Z,47.90
2023-03-13T09:32:59.108Z,48.53
2023-03-13T09:35:58.509Z,46.20
2023-03-13T09:38:28.594Z,50.40
2023-03-13T09:41:06.450Z,48.22
2023-03-13T09:43:55.003Z,46.70
2023-03-13T09:46:42.479Z,46.30
2023-03-13T09:49:30.599Z,46.88
2023-03-13T09:52:19.910Z,48.47
2023-03-13T09:54:54.750Z,45.83
2023-03-13T09:57:43.307Z,46.72
2023-03-13T10:00:22.263Z,45.75
2023-03-13T10:03:09.985Z,47.17
2023-03-13T10:05:47.955Z,43.15
2023-03-13T10:08:25.354Z,46.67
2023-03-13T10:11:22.302Z,47.28
2023-03-13T10:14:14.129Z,48.35
2023-03-13T10:17:37.064Z,46.72
2023-03-13T10:20:24.838Z,45.40
2023-03-13T10:23:14.896Z,46.72
2023-03-13T10:25:44.890Z,45.72
2023-03-13T10:28:17.968Z,45.38
2023-03-13T10:31:05.765Z,47.03
2023-03-13T10:33:39.402Z,44.60
2023-03-13T10:36:12.698Z,46.67
2023-03-13T10:38:57.015Z,46.25
2023-03-13T10:41:40.597Z,43.92
2023-03-13T10:44:18.239Z,45.75
2023-03-13T10:46:50.549Z,45.53
2023-03-13T10:49:26.276Z,47.42
2023-03-13T10:51:57.726Z,44.05
2023-03-13T10:54:32.887Z,44.88
2023-03-13T10:57:21.286Z,44.95
2023-03-13T10:59:56.573Z,45.50
2023-03-13T11:02:29.822Z,43.38
2023-03-13T11:05:01.961Z,46.22
2023-03-13T11:07:42.653Z,42.47
2023-03-13T11:10:19.171Z,44.27
2023-03-13T11:12:51.480Z,43.97
2023-03-13T11:15:24.719Z,44.13
2023-03-13T11:18:06.015Z,45.75
2023-03-13T11:20:39.075Z,45.75
2023-03-13T11:23:26.356Z,44.97
2023-03-13T11:26:18.354Z,47.53
2023-03-13T11:28:58.131Z,49.92
2023-03-13T11:31:40.099Z,46.88
2023-03-13T11:34:34.676Z,49.60
2023-03-13T11:37:07.318Z,46.45
2023-03-13T11:39:53.480Z,46.28
2023-03-13T11:42:44.682Z,45.45
2023-03-13T11:45:33.178Z,47.15
2023-03-13T11:48:08.973Z,46.40
2023-03-13T11:51:01.180Z,44.15
2023-03-13T11:53:47.736Z,46.60
2023-03-13T11:56:26.254Z,46.75
2023-03-13T11:59:11.070Z,55.08
2023-03-13T12:02:06.580Z,46.42
2023-03-13T12:04:43.534Z,46.75
2023-03-13T12:07:24.255Z,46.45
2023-03-13T12:10:34.469Z,45.70
2023-03-13T12:13:16.516Z,51.63
2023-03-13T12:15:54.668Z,54.03
2023-03-13T12:18:43.242Z,51.72
2023-03-13T12:21:25.787Z,49.90
2023-03-13T12:24:36.434Z,51.88
2023-03-13T12:27:34.987Z,56.72
2023-03-13T12:30:09.733Z,53.08
2023-03-13T12:32:43.590Z,61.03
2023-03-13T12:35:37.194Z,55.90
2023-03-13T12:38:32.509Z,52.85
2023-03-13T12:41:30.353Z,52.40
2023-03-13T12:44:08.749Z,57.83
2023-03-13T12:46:44.159Z,53.20
2023-03-13T12:49:48.547Z,51.47
2023-03-13T12:52:21.486Z,52.08
2023-03-13T12:55:22.266Z,53.70
2023-03-13T12:58:10.747Z,54.20
2023-03-13T13:00:43.933Z,59.30
2023-03-13T13:03:25.349Z,53.10
2023-03-13T13:09:11.601Z,54.42
2023-03-13T13:11:41.554Z,56.40
2023-03-13T13:14:31.508Z,57.50
2023-03-13T13:17:16.259Z,65.00
2023-03-13T13:19:48.883Z,58.70
2023-03-13T13:22:39.921Z,57.75
2023-03-13T13:25:15.753Z,61.35
2023-03-13T13:27:45.993Z,60.67
2023-03-13T13:30:22.477Z,69.17
2023-03-13T13:32:56.460Z,74.57
2023-03-13T13:36:44.917Z,86.00
2023-03-13T13:39:48.357Z,68.57
2023-03-13T13:42:33.789Z,74.13
2023-03-13T13:45:19.769Z,74.20
2023-03-13T13:47:51.710Z,75.63
2023-03-13T13:50:21.771Z,78.97
2023-03-13T13:52:53.065Z,73.22
2023-03-13T13:55:29.040Z,73.75
2023-03-13T13:58:25.394Z,71.47
2023-03-13T14:01:04.304Z,69.43
2023-03-13T14:03:36.029Z,72.88
2023-03-13T14:06:27.198Z,65.72
2023-03-13T14:09:04.579Z,63.55
2023-03-13T14:11:41.871Z,68.38
2023-03-13T14:14:18.804Z,68.13
2023-03-13T14:16:53.170Z,62.45
2023-03-13T14:19:40.663Z,60.63
2023-03-13T14:22:12.962Z,63.80
2023-03-13T14:24:43.381Z,61.50
2023-03-13T14:27:21.822Z,63.88
2023-03-13T14:30:11.346Z,58.08
2023-03-13T14:32:42.286Z,61.00
2023-03-13T14:37:49.660Z,53.67
2023-03-13T14:40:39.794Z,58.78
2023-03-13T14:43:40.539Z,54.92
2023-03-13T14:46:23.331Z,57.28
2023-03-13T14:48:58.077Z,55.33
2023-03-13T14:51:31.590Z,56.20
2023-03-13T14:54:06.559Z,53.25
2023-03-13T14:56:44.497Z,59.03
2023-03-13T14:59:21.721Z,60.22
2023-03-13T15:02:15.371Z,55.08
2023-03-13T15:04:54.986Z,62.10
2023-03-13T15:07:27.054Z,64.60
2023-03-13T15:09:57.270Z,62.47
2023-03-13T15:12:28.852Z,59.20
2023-03-13T15:15:00.181Z,56.92
2023-03-13T15:20:02.099Z,59.38
2023-03-13T15:22:35.105Z,57.03
2023-03-13T15:25:08.137Z,59.28
2023-03-13T15:27:38.832Z,58.20
2023-03-13T15:30:12.722Z,57.03
2023-03-13T15:32:44.796Z,58.60
2023-03-13T15:35:20.829Z,63.40
2023-03-13T15:37:50.908Z,60.13
2023-03-13T15:40:22.195Z,57.00
2023-03-13T15:42:52.721Z,59.22
2023-03-13T15:45:23.623Z,60.13
2023-03-13T15:47:54.088Z,57.38
2023-03-13T15:50:31.955Z,58.07
2023-03-13T15:53:03.416Z,57.65
2023-03-13T15:55:33.958Z,60.80
2023-03-13T15:58:04.158Z,59.63
2023-03-13T16:00:34.065Z,60.72
2023-03-13T16:03:04.286Z,57.63
2023-03-13T16:05:34.215Z,57.08
2023-03-13T16:08:04.345Z,56.58
2023-03-13T16:10:35.246Z,59.30
2023-03-13T16:13:05.786Z,57.42
2023-03-13T16:15:38.424Z,56.37
2023-03-13T16:18:11.391Z,58.10
2023-03-13T16:20:43.335Z,58.10
2023-03-13T16:23:13.414Z,56.25
2023-03-13T16:25:44.876Z,50.30
2023-03-13T16:28:17.077Z,53.65
2023-03-13T16:30:49.518Z,55.03
2023-03-13T16:33:20.117Z,55.20
2023-03-13T16:35:52.263Z,52.45
2023-03-13T16:38:23.693Z,53.85
2023-03-13T16:40:55.016Z,53.53
2023-03-13T16:45:55.020Z,54.33
2023-03-13T16:50:55.787Z,51.97
2023-03-13T16:53:25.852Z,50.33
2023-03-13T16:55:58.761Z,51.10
2023-03-13T16:58:28.910Z,48.65
2023-03-13T17:01:05.354Z,48.85
2023-03-13T17:03:36.431Z,54.55
2023-03-13T17:06:06.852Z,48.10
2023-03-13T17:08:37.027Z,50.17
2023-03-13T17:11:07.538Z,50.42
2023-03-13T17:13:39.018Z,50.23
2023-03-13T17:16:24.700Z,52.50
2023-03-13T17:18:56.264Z,50.30
2023-03-13T17:21:29.521Z,52.03
2023-03-13T17:24:01.669Z,54.50
2023-03-13T17:26:40.468Z,49.95
2023-03-13T17:29:16.913Z,49.03
2023-03-13T17:31:47.998Z,47.67
2023-03-13T17:34:19.048Z,53.78
2023-03-13T17:36:50.990Z,52.88
2023-03-13T17:39:23.611Z,46.80
2023-03-13T17:41:53.934Z,51.47
2023-03-13T17:44:23.886Z,49.58
2023-03-13T17:46:54.804Z,49.08
2023-03-13T17:49:24.927Z,48.05
2023-03-13T17:51:55.045Z,49.33
2023-03-13T17:54:25.017Z,49.90
2023-03-13T17:56:55.366Z,46.83
2023-03-13T17:59:25.415Z,49.77
2023-03-13T18:01:55.460Z,49.67
2023-03-13T18:04:25.428Z,49.38
2023-03-13T18:06:55.394Z,46.25
2023-03-13T18:09:25.696Z,52.50
2023-03-13T18:11:55.784Z,49.93
2023-03-13T18:14:25.835Z,46.92
2023-03-13T18:16:59.456Z,51.03
2023-03-13T18:19:29.674Z,49.55
2023-03-13T18:21:59.726Z,52.03
2023-03-13T18:24:29.665Z,52.08
2023-03-13T18:27:01.189Z,47.78
2023-03-13T18:29:31.534Z,51.72
2023-03-13T18:32:05.369Z,47.67
2023-03-13T18:34:37.210Z,49.85
2023-03-13T18:37:18.462Z,49.22
2023-03-13T18:39:48.674Z,54.60
2023-03-13T18:42:19.254Z,51.35
2023-03-13T18:44:49.352Z,45.60
2023-03-13T18:47:21.936Z,49.85
2023-03-13T18:49:53.124Z,49.47
2023-03-13T18:52:23.143Z,47.47
2023-03-13T18:54:52.999Z,46.15
2023-03-13T18:57:23.805Z,50.78
2023-03-13T18:59:53.912Z,44.22
2023-03-13T19:02:23.790Z,47.05
2023-03-13T19:04:54.218Z,47.30
2023-03-13T19:07:29.605Z,45.00
2023-03-13T19:09:59.677Z,50.42
2023-03-13T19:12:29.731Z,44.70
2023-03-13T19:14:59.657Z,47.15
2023-03-13T19:17:31.260Z,49.72
2023-03-13T19:20:01.252Z,49.92
2023-03-13T19:22:31.315Z,48.03
2023-03-13T19:25:01.354Z,47.35
2023-03-13T19:27:31.594Z,43.45
2023-03-13T19:30:01.692Z,47.73
2023-03-13T19:32:31.585Z,44.13
2023-03-13T19:35:01.484Z,46.05
2023-03-13T19:37:31.284Z,43.13
2023-03-13T19:40:01.105Z,50.88
2023-03-13T19:42:31.041Z,46.35
2023-03-13T19:45:01.328Z,43.97
2023-03-13T19:47:31.550Z,47.90
2023-03-13T19:50:02.671Z,43.40
2023-03-13T19:52:32.781Z,49.47
2023-03-13T19:55:05.887Z,41.95
2023-03-13T19:57:36.676Z,47.10
2023-03-13T20:00:08.348Z,46.15
2023-03-13T20:02:42.607Z,49.40
2023-03-13T20:05:13.072Z,46.58
2023-03-13T20:07:43.159Z,49.50
2023-03-13T20:10:13.546Z,43.97
2023-03-13T20:12:43.564Z,43.03
2023-03-13T20:15:14.149Z,47.08
2023-03-13T20:17:50.991Z,42.90
2023-03-13T20:20:25.858Z,44.65
2023-03-13T20:22:57.944Z,46.25
2023-03-13T20:25:30.914Z,42.05
2023-03-13T20:28:00.929Z,42.40
2023-03-13T20:30:30.813Z,48.10
2023-03-13T20:33:00.777Z,47.95
2023-03-13T20:35:31.203Z,49.08
2023-03-13T20:38:02.960Z,46.27
2023-03-13T20:40:36.468Z,46.25
2023-03-13T20:43:06.581Z,44.75
2023-03-13T20:45:36.911Z,42.90
2023-03-13T20:48:07.178Z,42.93
2023-03-13T20:50:37.381Z,50.75
2023-03-13T20:53:07.654Z,49.55
2023-03-13T20:55:40.215Z,43.55
2023-03-13T20:58:11.133Z,45.55
2023-03-13T21:00:41.157Z,48.22
2023-03-13T21:03:11.523Z,43.97
2023-03-13T21:05:42.455Z,44.75
2023-03-13T21:08:13.615Z,48.40
2023-03-13T21:10:44.701Z,43.58
2023-03-13T21:13:15.046Z,46.65
2023-03-13T21:15:45.529Z,45.15
2023-03-13T21:18:15.551Z,48.10
2023-03-13T21:20:45.447Z,45.72
2023-03-13T21:23:15.281Z,52.58
2023-03-13T21:25:45.145Z,54.28
2023-03-13T21:28:15.363Z,51.58
2023-03-13T21:30:45.464Z,44.67
2023-03-13T21:33:16.494Z,53.80
2023-03-13T21:35:49.063Z,55.22
2023-03-13T21:38:20.076Z,55.05
2023-03-13T21:40:50.081Z,53.70
2023-03-13T21:43:19.973Z,48.97
2023-03-13T21:45:49.866Z,53.55
2023-03-13T21:48:19.809Z,55.78
2023-03-13T21:50:50.234Z,54.13
2023-03-13T21:53:21.247Z,58.20
2023-03-13T21:55:53.332Z,61.35
2023-03-13T21:58:23.371Z,60.90
2023-03-13T22:00:57.446Z,58.50
2023-03-13T22:03:31.104Z,62.08
2023-03-13T22:06:01.703Z,62.40
2023-03-13T22:08:31.846Z,65.83
2023-03-13T22:11:02.084Z,64.50
2023-03-13T22:13:31.935Z,64.47
2023-03-13T22:16:02.055Z,65.70
2023-03-13T22:18:35.549Z,60.00
2023-03-13T22:21:06.010Z,63.63
2023-03-13T22:23:36.133Z,60.10
2023-03-13T22:26:07.005Z,64.10
2023-03-13T22:28:37.472Z,63.60
2023-03-13T22:31:09.291Z,58.63
2023-03-13T22:33:39.588Z,69.07
2023-03-13T22:36:10.783Z,59.55
2023-03-13T22:41:14.334Z,54.20
2023-03-13T22:43:44.380Z,63.08
2023-03-13T22:46:15.146Z,53.22
2023-03-13T22:48:45.131Z,52.25
2023-03-13T22:51:17.183Z,59.55
2023-03-13T22:53:47.399Z,52.75
2023-03-13T22:56:17.349Z,54.63
2023-03-13T22:58:47.645Z,53.65
2023-03-13T23:02:13.932Z,66.30
2023-03-13T23:04:44.092Z,68.38
2023-03-13T23:07:13.983Z,58.45
2023-03-13T23:09:43.862Z,56.40
2023-03-13T23:12:14.745Z,53.38
2023-03-13T23:14:44.769Z,50.83
2023-03-13T23:17:14.822Z,54.03
2023-03-13T23:19:44.689Z,47.33
2023-03-13T23:22:19.857Z,47.83
2023-03-13T23:24:51.478Z,42.05
2023-03-13T23:27:21.916Z,44.53
2023-03-13T23:32:44.585Z,45.08
2023-03-13T23:35:15.813Z,43.15
2023-03-13T23:37:49.021Z,43.47
2023-03-13T23:40:19.458Z,43.13
2023-03-13T23:42:52.558Z,40.00
2023-03-13T23:45:22.572Z,41.45
2023-03-13T23:47:55.223Z,40.42
2023-03-13T23:50:26.201Z,45.08
2023-03-13T23:52:57.702Z,45.40
2023-03-13T23:55:28.064Z,43.92
2023-03-13T23:57:58.057Z,36.10
